createdAt,value
2019-01-16T00:00:43.923Z,993.14
2019-01-16T00:01:43.959Z,993.13
2019-01-16T00:02:44.004Z,993.08
2019-01-16T00:03:44.139Z,993.16
2019-01-16T00:04:44.070Z,993.13
2019-01-16T00:05:44.110Z,993.17
2019-01-16T00:06:44.153Z,993.08
2019-01-16T00:07:44.187Z,993.14
2019-01-16T00:08:44.225Z,993.13
2019-01-16T00:09:44.267Z,993.12
2019-01-16T00:10:44.300Z,993.12
2019-01-16T00:11:44.338Z,993.08
2019-01-16T00:12:44.374Z,993.03
2019-01-16T00:13:44.413Z,992.99
2019-01-16T00:14:44.449Z,993.02
2019-01-16T00:15:44.497Z,993.01
2019-01-16T00:16:44.523Z,992.97
2019-01-16T00:17:44.577Z,992.99
2019-01-16T00:18:44.609Z,992.91
2019-01-16T00:19:44.645Z,992.95
2019-01-16T00:20:44.674Z,992.93
2019-01-16T00:21:44.712Z,992.94
2019-01-16T00:22:44.749Z,992.96
2019-01-16T00:23:44.787Z,992.86
2019-01-16T00:24:44.825Z,992.90
2019-01-16T00:25:44.865Z,992.91
2019-01-16T00:26:44.903Z,992.92
2019-01-16T00:27:44.939Z,992.92
2019-01-16T00:28:44.976Z,992.90
2019-01-16T00:29:45.015Z,992.85
2019-01-16T00:30:45.062Z,992.89
2019-01-16T00:31:45.089Z,992.83
2019-01-16T00:32:45.133Z,992.89
2019-01-16T00:33:45.164Z,992.85
2019-01-16T00:34:45.204Z,992.87
2019-01-16T00:35:45.248Z,992.85
2019-01-16T00:36:45.376Z,992.86
2019-01-16T00:37:45.316Z,992.79
2019-01-16T00:38:45.354Z,992.76
2019-01-16T00:39:45.390Z,992.76
2019-01-16T00:40:45.431Z,992.74
2019-01-16T00:41:45.464Z,992.77
2019-01-16T00:42:45.503Z,992.74
2019-01-16T00:43:45.544Z,992.76
2019-01-16T00:44:45.580Z,992.77
2019-01-16T00:45:45.615Z,992.82
2019-01-16T00:46:45.658Z,992.81
2019-01-16T00:47:45.691Z,992.82
2019-01-16T00:48:45.736Z,992.79
2019-01-16T00:49:46.609Z,992.80
2019-01-16T00:50:45.810Z,992.77
2019-01-16T00:51:45.852Z,992.72
2019-01-16T00:52:45.877Z,992.72
2019-01-16T00:53:45.918Z,992.72
2019-01-16T00:54:45.953Z,992.72
2019-01-16T00:55:45.991Z,992.73
2019-01-16T00:56:46.028Z,992.72
2019-01-16T00:57:46.074Z,992.74
2019-01-16T00:58:46.103Z,992.71
2019-01-16T00:59:46.143Z,992.75
2019-01-16T01:00:46.187Z,992.73
2019-01-16T01:01:46.225Z,992.77
2019-01-16T01:02:46.256Z,992.79
2019-01-16T01:03:46.292Z,992.76
2019-01-16T01:04:46.332Z,992.75
2019-01-16T01:05:46.368Z,992.76
2019-01-16T01:06:46.406Z,992.76
2019-01-16T01:07:46.450Z,992.75
2019-01-16T01:08:46.490Z,992.72
2019-01-16T01:09:46.518Z,992.73
2019-01-16T01:10:46.554Z,992.67
2019-01-16T01:11:46.594Z,992.63
2019-01-16T01:12:46.638Z,992.64
2019-01-16T01:13:46.668Z,992.65
2019-01-16T01:14:46.705Z,992.69
2019-01-16T01:15:46.749Z,992.63
2019-01-16T01:16:46.789Z,992.66
2019-01-16T01:17:46.827Z,992.63
2019-01-16T01:18:46.856Z,992.62
2019-01-16T01:19:46.895Z,992.63
2019-01-16T01:20:46.930Z,992.63
2019-01-16T01:21:46.968Z,992.64
2019-01-16T01:22:47.005Z,992.62
2019-01-16T01:23:47.043Z,992.62
2019-01-16T01:24:47.079Z,992.63
2019-01-16T01:25:47.117Z,992.64
2019-01-16T01:26:47.154Z,992.61
2019-01-16T01:27:47.192Z,992.62
2019-01-16T01:28:47.238Z,992.61
2019-01-16T01:29:47.267Z,992.68
2019-01-16T01:30:47.312Z,992.64
2019-01-16T01:31:47.344Z,992.66
2019-01-16T01:32:47.379Z,992.62
2019-01-16T01:33:47.416Z,992.65
2019-01-16T01:34:47.455Z,992.61
2019-01-16T01:35:47.495Z,992.59
2019-01-16T01:36:47.529Z,992.62
2019-01-16T01:37:47.567Z,992.60
2019-01-16T01:38:47.604Z,992.57
2019-01-16T01:39:47.649Z,992.53
2019-01-16T01:40:47.677Z,992.47
2019-01-16T01:41:47.715Z,992.48
2019-01-16T01:42:47.753Z,992.48
2019-01-16T01:43:47.806Z,992.51
2019-01-16T01:44:47.827Z,992.51
2019-01-16T01:45:47.869Z,992.56
2019-01-16T01:46:47.901Z,992.55
2019-01-16T01:47:47.939Z,992.53
2019-01-16T01:48:47.975Z,992.59
2019-01-16T01:49:48.029Z,992.56
2019-01-16T01:50:48.050Z,992.62
2019-01-16T01:51:48.087Z,992.63
2019-01-16T01:52:48.125Z,992.54
2019-01-16T01:53:48.163Z,992.54
2019-01-16T01:54:48.200Z,992.64
2019-01-16T01:55:48.236Z,992.53
2019-01-16T01:56:48.270Z,992.48
2019-01-16T01:57:48.309Z,992.39
2019-01-16T01:58:48.353Z,992.39
2019-01-16T01:59:48.384Z,992.45
2019-01-16T02:00:48.421Z,992.45
2019-01-16T02:01:48.457Z,992.43
2019-01-16T02:02:48.494Z,992.46
2019-01-16T02:03:48.533Z,992.46
2019-01-16T02:04:48.568Z,992.41
2019-01-16T02:05:48.609Z,992.44
2019-01-16T02:06:48.657Z,992.44
2019-01-16T02:07:48.685Z,992.44
2019-01-16T02:08:48.718Z,992.46
2019-01-16T02:09:48.763Z,992.43
2019-01-16T02:10:48.798Z,992.44
2019-01-16T02:11:48.834Z,992.38
2019-01-16T02:12:48.866Z,992.39
2019-01-16T02:13:48.906Z,992.39
2019-01-16T02:14:48.940Z,992.43
2019-01-16T02:15:48.978Z,992.44
2019-01-16T02:16:49.024Z,992.42
2019-01-16T02:17:49.052Z,992.31
2019-01-16T02:18:49.090Z,992.31
2019-01-16T02:19:49.127Z,992.27
2019-01-16T02:20:49.165Z,992.29
2019-01-16T02:21:49.200Z,992.27
2019-01-16T02:22:49.236Z,992.23
2019-01-16T02:23:49.277Z,992.29
2019-01-16T02:24:49.313Z,992.27
2019-01-16T02:25:49.351Z,992.26
2019-01-16T02:26:49.385Z,992.27
2019-01-16T02:27:49.423Z,992.25
2019-01-16T02:28:49.460Z,992.21
2019-01-16T02:29:49.496Z,992.24
2019-01-16T02:30:49.534Z,992.30
2019-01-16T02:31:49.572Z,992.26
2019-01-16T02:32:49.608Z,992.30
2019-01-16T02:33:49.645Z,992.22
2019-01-16T02:34:49.681Z,992.25
2019-01-16T02:35:49.719Z,992.25
2019-01-16T02:36:49.755Z,992.23
2019-01-16T02:37:49.793Z,992.26
2019-01-16T02:38:49.832Z,992.25
2019-01-16T02:39:49.878Z,992.23
2019-01-16T02:40:49.906Z,992.20
2019-01-16T02:41:49.944Z,992.26
2019-01-16T02:42:49.980Z,992.26
2019-01-16T02:43:50.016Z,992.27
2019-01-16T02:44:50.053Z,992.23
2019-01-16T02:45:50.093Z,992.27
2019-01-16T02:46:50.129Z,992.24
2019-01-16T02:47:50.175Z,992.24
2019-01-16T02:48:55.812Z,992.25
2019-01-16T02:49:50.242Z,992.27
2019-01-16T02:50:50.281Z,992.24
2019-01-16T02:51:50.320Z,992.27
2019-01-16T02:52:50.351Z,992.26
2019-01-16T02:53:50.391Z,992.21
2019-01-16T02:54:50.428Z,992.21
2019-01-16T02:55:50.466Z,992.19
2019-01-16T02:56:50.529Z,992.19
2019-01-16T02:57:50.545Z,992.21
2019-01-16T02:58:50.575Z,992.17
2019-01-16T02:59:50.614Z,992.20
2019-01-16T03:00:50.650Z,992.17
2019-01-16T03:01:50.685Z,992.18
2019-01-16T03:02:50.728Z,992.16
2019-01-16T03:03:50.763Z,992.15
2019-01-16T03:04:50.797Z,992.14
2019-01-16T03:05:50.837Z,992.11
2019-01-16T03:06:50.873Z,992.17
2019-01-16T03:07:50.962Z,992.15
2019-01-16T03:08:50.947Z,992.16
2019-01-16T03:09:50.984Z,992.19
2019-01-16T03:10:51.023Z,992.17
2019-01-16T03:11:51.058Z,992.21
2019-01-16T03:12:51.095Z,992.09
2019-01-16T03:13:51.135Z,992.13
2019-01-16T03:14:51.170Z,992.10
2019-01-16T03:15:51.209Z,992.10
2019-01-16T03:16:51.244Z,992.10
2019-01-16T03:17:51.281Z,992.06
2019-01-16T03:18:51.322Z,992.05
2019-01-16T03:19:51.357Z,992.07
2019-01-16T03:20:51.394Z,992.10
2019-01-16T03:21:51.432Z,992.07
2019-01-16T03:22:51.469Z,992.09
2019-01-16T03:23:51.516Z,992.09
2019-01-16T03:24:51.543Z,992.06
2019-01-16T03:25:51.579Z,992.07
2019-01-16T03:26:51.617Z,992.06
2019-01-16T03:27:51.654Z,992.06
2019-01-16T03:28:51.691Z,992.06
2019-01-16T03:29:51.732Z,992.06
2019-01-16T03:30:51.766Z,992.04
2019-01-16T03:31:51.814Z,992.04
2019-01-16T03:32:51.840Z,992.03
2019-01-16T03:33:51.876Z,992.01
2019-01-16T03:34:51.913Z,992.04
2019-01-16T03:35:51.952Z,992.01
2019-01-16T03:36:51.993Z,991.97
2019-01-16T03:37:52.032Z,991.98
2019-01-16T03:38:52.119Z,991.94
2019-01-16T03:39:52.100Z,991.94
2019-01-16T03:40:52.144Z,991.93
2019-01-16T03:41:52.172Z,991.91
2019-01-16T03:42:52.220Z,991.91
2019-01-16T03:43:52.251Z,991.89
2019-01-16T03:44:52.285Z,991.93
2019-01-16T03:45:52.322Z,991.91
2019-01-16T03:46:52.359Z,991.92
2019-01-16T03:47:52.399Z,991.94
2019-01-16T03:48:52.434Z,991.90
2019-01-16T03:49:52.479Z,991.94
2019-01-16T03:50:52.510Z,991.91
2019-01-16T03:51:52.549Z,991.88
2019-01-16T03:52:52.588Z,991.90
2019-01-16T03:53:52.626Z,991.85
2019-01-16T03:54:52.657Z,991.84
2019-01-16T03:55:52.697Z,991.90
2019-01-16T03:56:52.733Z,991.88
2019-01-16T03:57:52.771Z,991.87
2019-01-16T03:58:52.805Z,991.90
2019-01-16T03:59:52.845Z,991.90
2019-01-16T04:00:52.883Z,991.88
2019-01-16T04:01:52.928Z,991.91
2019-01-16T04:02:52.955Z,991.88
2019-01-16T04:03:52.992Z,991.84
2019-01-16T04:04:53.028Z,991.80
2019-01-16T04:05:53.066Z,991.82
2019-01-16T04:06:53.107Z,991.84
2019-01-16T04:07:53.146Z,991.85
2019-01-16T04:08:53.175Z,991.81
2019-01-16T04:09:53.213Z,991.77
2019-01-16T04:10:53.250Z,991.80
2019-01-16T04:11:53.289Z,991.80
2019-01-16T04:12:53.324Z,991.80
2019-01-16T04:13:53.359Z,991.77
2019-01-16T04:14:53.399Z,991.73
2019-01-16T04:15:53.464Z,991.68
2019-01-16T04:16:53.472Z,991.65
2019-01-16T04:17:53.508Z,991.65
2019-01-16T04:18:53.549Z,991.60
2019-01-16T04:19:53.583Z,991.61
2019-01-16T04:20:53.641Z,991.57
2019-01-16T04:21:53.665Z,991.57
2019-01-16T04:22:53.695Z,991.55
2019-01-16T04:23:53.733Z,991.54
2019-01-16T04:24:53.767Z,991.52
2019-01-16T04:25:53.806Z,991.53
2019-01-16T04:26:53.843Z,991.56
2019-01-16T04:27:53.887Z,991.53
2019-01-16T04:28:53.916Z,991.56
2019-01-16T04:29:53.953Z,991.55
2019-01-16T04:30:53.991Z,991.56
2019-01-16T04:31:54.028Z,991.57
2019-01-16T04:32:54.065Z,991.58
2019-01-16T04:33:54.101Z,991.49
2019-01-16T04:34:54.138Z,991.54
2019-01-16T04:35:54.177Z,991.49
2019-01-16T04:36:54.212Z,991.51
2019-01-16T04:37:54.251Z,991.54
2019-01-16T04:38:54.286Z,991.55
2019-01-16T04:39:54.324Z,991.46
2019-01-16T04:40:54.360Z,991.45
2019-01-16T04:41:54.406Z,991.48
2019-01-16T04:42:54.433Z,991.43
2019-01-16T04:43:54.470Z,991.43
2019-01-16T04:44:54.516Z,991.42
2019-01-16T04:45:54.544Z,991.38
2019-01-16T04:46:54.582Z,991.42
2019-01-16T04:47:54.643Z,991.38
2019-01-16T04:48:54.657Z,991.44
2019-01-16T04:49:54.694Z,991.42
2019-01-16T04:50:54.729Z,991.41
2019-01-16T04:51:54.769Z,991.41
2019-01-16T04:52:54.804Z,991.48
2019-01-16T04:53:54.841Z,991.43
2019-01-16T04:54:54.882Z,991.42
2019-01-16T04:55:54.915Z,991.45
2019-01-16T04:56:54.966Z,991.38
2019-01-16T04:57:54.988Z,991.40
2019-01-16T04:58:55.133Z,991.41
2019-01-16T04:59:55.064Z,991.34
2019-01-16T05:00:55.115Z,991.36
2019-01-16T05:01:55.135Z,991.36
2019-01-16T05:02:55.174Z,991.41
2019-01-16T05:03:55.212Z,991.37
2019-01-16T05:04:55.273Z,991.37
2019-01-16T05:05:55.385Z,991.37
2019-01-16T05:06:55.321Z,991.35
2019-01-16T05:07:55.360Z,991.37
2019-01-16T05:08:55.395Z,991.33
2019-01-16T05:09:55.432Z,991.32
2019-01-16T05:10:55.478Z,991.33
2019-01-16T05:11:55.519Z,991.32
2019-01-16T05:12:55.543Z,991.31
2019-01-16T05:13:55.580Z,991.31
2019-01-16T05:14:55.619Z,991.35
2019-01-16T05:15:55.654Z,991.28
2019-01-16T05:16:55.691Z,991.27
2019-01-16T05:17:55.728Z,991.31
2019-01-16T05:18:55.771Z,991.27
2019-01-16T05:19:55.806Z,991.25
2019-01-16T05:20:55.841Z,991.26
2019-01-16T05:21:55.875Z,991.28
2019-01-16T05:22:55.915Z,991.24
2019-01-16T05:23:55.951Z,991.25
2019-01-16T05:24:55.986Z,991.23
2019-01-16T05:25:56.027Z,991.29
2019-01-16T05:26:56.063Z,991.27
2019-01-16T05:27:56.111Z,991.28
2019-01-16T05:28:56.137Z,991.25
2019-01-16T05:29:56.181Z,991.27
2019-01-16T05:30:56.211Z,991.24
2019-01-16T05:31:56.252Z,991.23
2019-01-16T05:32:56.286Z,991.23
2019-01-16T05:33:56.323Z,991.21
2019-01-16T05:34:56.360Z,991.15
2019-01-16T05:35:56.398Z,991.19
2019-01-16T05:36:56.437Z,991.20
2019-01-16T05:37:56.473Z,991.22
2019-01-16T05:38:56.520Z,991.21
2019-01-16T05:39:56.549Z,991.21
2019-01-16T05:40:56.592Z,991.17
2019-01-16T05:41:56.620Z,991.19
2019-01-16T05:42:56.660Z,991.20
2019-01-16T05:43:56.695Z,991.14
2019-01-16T05:44:56.731Z,991.14
2019-01-16T05:45:56.769Z,991.13
2019-01-16T05:46:56.815Z,991.13
2019-01-16T05:47:56.847Z,991.14
2019-01-16T05:48:56.880Z,991.15
2019-01-16T05:49:56.919Z,991.15
2019-01-16T05:50:56.959Z,991.11
2019-01-16T05:51:56.992Z,991.17
2019-01-16T05:52:57.030Z,991.16
2019-01-16T05:53:57.070Z,991.11
2019-01-16T05:54:57.154Z,991.12
2019-01-16T05:55:57.142Z,991.15
2019-01-16T05:56:57.178Z,991.14
2019-01-16T05:57:57.218Z,991.10
2019-01-16T05:58:57.252Z,991.08
2019-01-16T05:59:57.291Z,991.12
2019-01-16T06:00:57.329Z,991.10
2019-01-16T06:01:57.369Z,991.06
2019-01-16T06:02:57.405Z,991.04
2019-01-16T06:03:57.441Z,991.06
2019-01-16T06:04:57.481Z,991.01
2019-01-16T06:05:57.515Z,991.00
2019-01-16T06:06:57.555Z,991.01
2019-01-16T06:07:57.597Z,991.01
2019-01-16T06:08:57.633Z,991.02
2019-01-16T06:09:57.666Z,991.06
2019-01-16T06:10:57.703Z,991.05
2019-01-16T06:11:57.740Z,991.01
2019-01-16T06:12:57.776Z,991.05
2019-01-16T06:13:57.814Z,991.04
2019-01-16T06:14:57.852Z,991.01
2019-01-16T06:15:57.888Z,991.01
2019-01-16T06:16:57.973Z,990.95
2019-01-16T06:17:57.961Z,990.98
2019-01-16T06:18:57.999Z,990.96
2019-01-16T06:19:58.036Z,991.00
2019-01-16T06:20:58.073Z,990.97
2019-01-16T06:21:58.115Z,990.97
2019-01-16T06:22:58.148Z,990.94
2019-01-16T06:23:58.185Z,990.93
2019-01-16T06:24:58.225Z,990.94
2019-01-16T06:25:58.260Z,990.95
2019-01-16T06:26:58.296Z,990.94
2019-01-16T06:27:58.334Z,990.89
2019-01-16T06:28:58.371Z,990.93
2019-01-16T06:29:58.409Z,990.95
2019-01-16T06:30:58.462Z,990.92
2019-01-16T06:31:58.485Z,990.92
2019-01-16T06:32:58.521Z,990.88
2019-01-16T06:33:58.567Z,990.91
2019-01-16T06:34:58.596Z,990.88
2019-01-16T06:35:58.642Z,990.86
2019-01-16T06:36:58.679Z,990.86
2019-01-16T06:37:58.707Z,990.88
2019-01-16T06:38:58.748Z,990.88
2019-01-16T06:39:58.783Z,990.86
2019-01-16T06:40:58.825Z,990.83
2019-01-16T06:41:58.857Z,990.79
2019-01-16T06:42:58.899Z,990.75
2019-01-16T06:43:58.931Z,990.73
2019-01-16T06:44:58.968Z,990.70
2019-01-16T06:45:59.006Z,990.67
2019-01-16T06:46:59.043Z,990.68
2019-01-16T06:47:59.082Z,990.66
2019-01-16T06:48:59.119Z,990.68
2019-01-16T06:50:01.755Z,990.64
2019-01-16T06:50:59.191Z,990.63
2019-01-16T06:51:59.229Z,990.65
2019-01-16T06:52:59.278Z,990.68
2019-01-16T06:53:59.304Z,990.65
2019-01-16T06:54:59.341Z,990.68
2019-01-16T06:55:59.379Z,990.64
2019-01-16T06:56:59.467Z,990.64
2019-01-16T06:57:59.453Z,990.65
2019-01-16T06:58:59.490Z,990.69
2019-01-16T06:59:59.529Z,990.68
2019-01-16T07:00:59.564Z,990.68
2019-01-16T07:01:59.601Z,990.68
2019-01-16T07:02:59.647Z,990.68
2019-01-16T07:03:59.678Z,990.70
2019-01-16T07:04:59.713Z,990.66
2019-01-16T07:05:59.750Z,990.67
2019-01-16T07:06:59.789Z,990.69
2019-01-16T07:07:59.826Z,990.68
2019-01-16T07:08:59.862Z,990.71
2019-01-16T07:09:59.900Z,990.71
2019-01-16T07:10:59.939Z,990.68
2019-01-16T07:11:59.974Z,990.69
2019-01-16T07:13:00.014Z,990.76
2019-01-16T07:14:00.047Z,990.73
2019-01-16T07:15:00.249Z,990.73
2019-01-16T07:16:00.136Z,990.72
2019-01-16T07:17:00.160Z,990.72
2019-01-16T07:18:00.198Z,990.73
2019-01-16T07:19:00.236Z,990.74
2019-01-16T07:20:00.272Z,990.74
2019-01-16T07:21:00.311Z,990.79
2019-01-16T07:22:00.347Z,990.79
2019-01-16T07:23:00.383Z,990.81
2019-01-16T07:24:00.421Z,990.77
2019-01-16T07:25:00.458Z,990.79
2019-01-16T07:26:00.497Z,990.78
2019-01-16T07:27:00.533Z,990.75
2019-01-16T07:28:00.570Z,990.77
2019-01-16T07:29:00.609Z,990.76
2019-01-16T07:30:00.664Z,990.75
2019-01-16T07:31:00.681Z,990.73
2019-01-16T07:32:00.727Z,990.73
2019-01-16T07:33:00.754Z,990.75
2019-01-16T07:34:00.793Z,990.77
2019-01-16T07:35:00.830Z,990.76
2019-01-16T07:36:00.870Z,990.75
2019-01-16T07:37:00.909Z,990.75
2019-01-16T07:38:00.943Z,990.78
2019-01-16T07:39:00.989Z,990.81
2019-01-16T07:40:01.018Z,990.82
2019-01-16T07:41:01.067Z,990.85
2019-01-16T07:42:01.092Z,990.87
2019-01-16T07:43:01.130Z,990.81
2019-01-16T07:44:01.219Z,990.84
2019-01-16T07:45:01.204Z,990.88
2019-01-16T07:46:01.243Z,990.93
2019-01-16T07:47:01.282Z,990.94
2019-01-16T07:48:01.316Z,990.95
2019-01-16T07:49:01.353Z,990.97
2019-01-16T07:50:01.410Z,990.91
2019-01-16T07:51:01.429Z,990.97
2019-01-16T07:52:01.467Z,990.91
2019-01-16T07:53:01.504Z,990.98
2019-01-16T07:54:01.540Z,990.98
2019-01-16T07:55:01.579Z,991.02
2019-01-16T07:56:01.624Z,991.03
2019-01-16T07:57:01.651Z,991.04
2019-01-16T07:58:01.771Z,991.01
2019-01-16T07:59:01.730Z,991.01
2019-01-16T08:00:01.765Z,990.99
2019-01-16T08:01:01.817Z,991.00
2019-01-16T08:02:01.840Z,991.05
2019-01-16T08:03:01.882Z,991.04
2019-01-16T08:04:01.916Z,991.10
2019-01-16T08:05:01.954Z,991.10
2019-01-16T08:06:01.990Z,991.08
2019-01-16T08:07:02.029Z,991.01
2019-01-16T08:08:02.070Z,991.00
2019-01-16T08:09:02.105Z,990.98
2019-01-16T08:10:02.147Z,991.01
2019-01-16T08:11:02.178Z,991.04
2019-01-16T08:12:02.215Z,990.97
2019-01-16T08:13:02.254Z,990.97
2019-01-16T08:14:02.297Z,990.94
2019-01-16T08:15:02.337Z,991.01
2019-01-16T08:16:02.369Z,990.95
2019-01-16T08:17:02.404Z,991.02
2019-01-16T08:18:02.439Z,991.04
2019-01-16T08:19:02.479Z,991.04
2019-01-16T08:20:02.518Z,991.03
2019-01-16T08:21:02.559Z,991.06
2019-01-16T08:22:02.593Z,991.08
2019-01-16T08:23:02.649Z,991.03
2019-01-16T08:24:02.670Z,991.01
2019-01-16T08:25:02.702Z,991.03
2019-01-16T08:26:02.739Z,991.01
2019-01-16T08:27:02.779Z,991.00
2019-01-16T08:28:02.816Z,991.07
2019-01-16T08:29:02.853Z,991.08
2019-01-16T08:30:02.899Z,991.04
2019-01-16T08:31:02.938Z,991.03
2019-01-16T08:32:02.964Z,991.02
2019-01-16T08:33:03.018Z,991.06
2019-01-16T08:34:03.090Z,991.06
2019-01-16T08:35:03.081Z,991.05
2019-01-16T08:36:03.117Z,991.06
2019-01-16T08:37:03.154Z,991.10
2019-01-16T08:38:03.190Z,991.08
2019-01-16T08:39:03.228Z,991.01
2019-01-16T08:40:03.273Z,991.02
2019-01-16T08:41:03.406Z,991.03
2019-01-16T08:42:03.345Z,991.07
2019-01-16T08:43:03.386Z,991.03
2019-01-16T08:44:03.418Z,991.00
2019-01-16T08:45:03.453Z,991.04
2019-01-16T08:46:03.492Z,991.01
2019-01-16T08:47:03.538Z,991.05
2019-01-16T08:48:03.568Z,991.01
2019-01-16T08:49:03.605Z,991.00
2019-01-16T08:50:03.643Z,990.97
2019-01-16T08:51:03.680Z,990.91
2019-01-16T08:52:03.724Z,990.90
2019-01-16T08:53:03.757Z,990.87
2019-01-16T08:54:03.798Z,990.82
2019-01-16T08:55:03.833Z,990.85
2019-01-16T08:56:03.870Z,990.86
2019-01-16T08:57:03.906Z,990.86
2019-01-16T08:58:03.944Z,990.83
2019-01-16T08:59:03.986Z,990.81
2019-01-16T09:00:04.018Z,990.81
2019-01-16T09:01:04.056Z,990.85
2019-01-16T09:02:04.095Z,990.87
2019-01-16T09:03:04.131Z,990.91
2019-01-16T09:04:04.170Z,990.84
2019-01-16T09:05:04.207Z,990.84
2019-01-16T09:06:04.249Z,990.85
2019-01-16T09:07:04.282Z,990.81
2019-01-16T09:08:04.321Z,990.83
2019-01-16T09:09:04.361Z,990.86
2019-01-16T09:10:04.399Z,990.87
2019-01-16T09:11:04.442Z,990.81
2019-01-16T09:12:04.471Z,990.86
2019-01-16T09:13:04.511Z,990.87
2019-01-16T09:14:04.547Z,990.86
2019-01-16T09:15:04.585Z,990.83
2019-01-16T09:16:04.626Z,990.79
2019-01-16T09:17:04.670Z,990.77
2019-01-16T09:18:04.698Z,990.77
2019-01-16T09:19:04.736Z,990.79
2019-01-16T09:20:04.774Z,990.80
2019-01-16T09:21:04.814Z,990.85
2019-01-16T09:22:04.851Z,990.84
2019-01-16T09:23:04.886Z,990.88
2019-01-16T09:24:04.936Z,990.88
2019-01-16T09:25:04.962Z,990.87
2019-01-16T09:26:05.001Z,990.88
2019-01-16T09:27:05.038Z,990.93
2019-01-16T09:28:05.076Z,990.98
2019-01-16T09:29:05.132Z,990.96
2019-01-16T09:30:05.151Z,990.97
2019-01-16T09:31:05.201Z,990.99
2019-01-16T09:32:05.232Z,990.99
2019-01-16T09:33:05.264Z,990.98
2019-01-16T09:34:05.313Z,990.97
2019-01-16T09:35:05.349Z,990.93
2019-01-16T09:36:05.378Z,990.95
2019-01-16T09:37:05.421Z,990.95
2019-01-16T09:38:05.504Z,990.88
2019-01-16T09:39:05.492Z,990.87
2019-01-16T09:40:05.529Z,990.84
2019-01-16T09:41:05.568Z,990.84
2019-01-16T09:42:05.610Z,990.80
2019-01-16T09:43:05.643Z,990.79
2019-01-16T09:44:05.681Z,990.74
2019-01-16T09:45:05.767Z,990.72
2019-01-16T09:46:05.757Z,990.66
2019-01-16T09:47:05.795Z,990.73
2019-01-16T09:48:05.834Z,990.72
2019-01-16T09:49:05.874Z,990.74
2019-01-16T09:50:05.906Z,990.77
2019-01-16T09:51:05.951Z,990.78
2019-01-16T09:52:06.085Z,990.73
2019-01-16T09:53:06.023Z,990.75
2019-01-16T09:54:06.059Z,990.74
2019-01-16T09:55:06.096Z,990.72
2019-01-16T09:56:06.135Z,990.70
2019-01-16T09:57:06.171Z,990.75
2019-01-16T09:58:06.210Z,990.71
2019-01-16T09:59:06.247Z,990.70
2019-01-16T10:00:06.286Z,990.71
2019-01-16T10:01:06.326Z,990.68
2019-01-16T10:02:06.369Z,990.59
2019-01-16T10:03:06.413Z,990.63
2019-01-16T10:04:06.495Z,990.58
2019-01-16T10:05:06.474Z,990.56
2019-01-16T10:06:06.512Z,990.61
2019-01-16T10:07:06.551Z,990.56
2019-01-16T10:08:06.589Z,990.56
2019-01-16T10:09:06.630Z,990.58
2019-01-16T10:10:06.665Z,990.56
2019-01-16T10:11:06.702Z,990.59
2019-01-16T10:12:06.740Z,990.65
2019-01-16T10:13:06.791Z,990.59
2019-01-16T10:14:06.816Z,990.61
2019-01-16T10:15:06.853Z,990.63
2019-01-16T10:16:06.892Z,990.60
2019-01-16T10:17:06.930Z,990.59
2019-01-16T10:18:06.969Z,990.57
2019-01-16T10:19:07.005Z,990.58
2019-01-16T10:20:07.046Z,990.57
2019-01-16T10:21:07.082Z,990.54
2019-01-16T10:22:07.125Z,990.57
2019-01-16T10:23:07.162Z,990.57
2019-01-16T10:24:07.195Z,990.53
2019-01-16T10:25:07.233Z,990.49
2019-01-16T10:26:07.272Z,990.54
2019-01-16T10:27:07.317Z,990.53
2019-01-16T10:28:07.351Z,990.51
2019-01-16T10:29:07.383Z,990.50
2019-01-16T10:30:07.423Z,990.54
2019-01-16T10:31:07.458Z,990.52
2019-01-16T10:32:07.505Z,990.52
2019-01-16T10:33:07.535Z,990.54
2019-01-16T10:34:07.580Z,990.49
2019-01-16T10:35:07.611Z,990.47
2019-01-16T10:36:07.650Z,990.43
2019-01-16T10:37:07.684Z,990.40
2019-01-16T10:38:07.723Z,990.42
2019-01-16T10:39:07.762Z,990.42
2019-01-16T10:40:07.808Z,990.40
2019-01-16T10:41:07.841Z,990.43
2019-01-16T10:42:07.876Z,990.37
2019-01-16T10:43:07.916Z,990.35
2019-01-16T10:44:07.953Z,990.28
2019-01-16T10:45:07.991Z,990.22
2019-01-16T10:46:08.026Z,990.24
2019-01-16T10:47:08.066Z,990.24
2019-01-16T10:48:08.109Z,990.25
2019-01-16T10:49:08.143Z,990.24
2019-01-16T10:50:08.180Z,990.18
2019-01-16T10:51:08.317Z,990.15
2019-01-16T10:52:08.260Z,990.15
2019-01-16T10:53:08.295Z,990.16
2019-01-16T10:54:08.332Z,990.18
2019-01-16T10:55:08.371Z,990.13
2019-01-16T10:56:08.411Z,990.12
2019-01-16T10:57:08.450Z,990.11
2019-01-16T10:58:08.485Z,990.12
2019-01-16T10:59:08.523Z,990.14
2019-01-16T11:00:08.574Z,990.12
2019-01-16T11:01:08.599Z,990.07
2019-01-16T11:02:08.636Z,990.05
2019-01-16T11:03:08.675Z,990.10
2019-01-16T11:04:08.715Z,990.06
2019-01-16T11:05:08.748Z,990.08
2019-01-16T11:06:08.788Z,990.10
2019-01-16T11:07:08.827Z,990.11
2019-01-16T11:08:08.868Z,990.10
2019-01-16T11:09:08.902Z,990.10
2019-01-16T11:10:08.966Z,990.10
2019-01-16T11:11:15.885Z,990.05
2019-01-16T11:12:09.034Z,990.06
2019-01-16T11:13:09.056Z,989.99
2019-01-16T11:14:09.095Z,990.02
2019-01-16T11:15:09.132Z,989.95
2019-01-16T11:16:09.169Z,989.93
2019-01-16T11:17:09.206Z,989.86
2019-01-16T11:18:09.248Z,989.82
2019-01-16T11:19:09.281Z,989.75
2019-01-16T11:20:09.340Z,989.72
2019-01-16T11:21:11.154Z,989.75
2019-01-16T11:22:09.397Z,989.63
2019-01-16T11:23:09.439Z,989.62
2019-01-16T11:24:09.475Z,989.60
2019-01-16T11:25:09.535Z,989.59
2019-01-16T11:26:09.548Z,989.57
2019-01-16T11:27:09.587Z,989.55
2019-01-16T11:28:09.625Z,989.49
2019-01-16T11:29:09.664Z,989.53
2019-01-16T11:30:09.702Z,989.52
2019-01-16T11:31:09.741Z,989.48
2019-01-16T11:32:09.779Z,989.52
2019-01-16T11:33:09.816Z,989.52
2019-01-16T11:34:09.870Z,989.39
2019-01-16T11:35:09.894Z,989.45
2019-01-16T11:36:09.932Z,989.48
2019-01-16T11:37:09.969Z,989.43
2019-01-16T11:38:10.008Z,989.46
2019-01-16T11:39:10.045Z,989.41
2019-01-16T11:40:10.085Z,989.44
2019-01-16T11:41:10.121Z,989.44
2019-01-16T11:42:10.161Z,989.48
2019-01-16T11:43:10.197Z,989.45
2019-01-16T11:44:10.244Z,989.49
2019-01-16T11:45:10.273Z,989.44
2019-01-16T11:46:10.313Z,989.44
2019-01-16T11:47:10.349Z,989.42
2019-01-16T11:48:10.388Z,989.41
2019-01-16T11:49:10.429Z,989.38
2019-01-16T11:50:10.466Z,989.35
2019-01-16T11:51:10.504Z,989.35
2019-01-16T11:52:10.542Z,989.32
2019-01-16T11:53:12.173Z,989.35
2019-01-16T11:54:10.630Z,989.26
2019-01-16T11:55:10.656Z,989.27
2019-01-16T11:56:10.694Z,989.22
2019-01-16T11:57:10.735Z,989.23
2019-01-16T11:58:10.770Z,989.21
2019-01-16T11:59:10.817Z,989.19
2019-01-16T12:00:10.846Z,989.18
2019-01-16T12:01:10.882Z,989.13
2019-01-16T12:02:10.932Z,989.13
2019-01-16T12:03:10.960Z,989.12
2019-01-16T12:04:10.998Z,989.01
2019-01-16T12:05:11.035Z,989.00
2019-01-16T12:06:11.073Z,988.99
2019-01-16T12:07:11.112Z,988.90
2019-01-16T12:08:11.150Z,988.92
2019-01-16T12:09:11.193Z,988.89
2019-01-16T12:10:11.226Z,988.92
2019-01-16T12:11:11.269Z,988.92
2019-01-16T12:12:11.303Z,988.91
2019-01-16T12:13:11.340Z,988.87
2019-01-16T12:14:11.378Z,988.85
2019-01-16T12:15:11.416Z,988.85
2019-01-16T12:16:11.456Z,988.82
2019-01-16T12:17:11.496Z,988.80
2019-01-16T12:18:11.535Z,988.78
2019-01-16T12:19:11.571Z,988.76
2019-01-16T12:20:11.608Z,988.71
2019-01-16T12:21:11.828Z,988.67
2019-01-16T12:22:11.681Z,988.62
2019-01-16T12:23:11.739Z,988.66
2019-01-16T12:24:11.766Z,988.60
2019-01-16T12:25:11.796Z,988.59
2019-01-16T12:26:11.837Z,988.61
2019-01-16T12:27:11.875Z,988.58
2019-01-16T12:28:11.928Z,988.55
2019-01-16T12:29:12.065Z,988.50